sensor_id;sensor_type;location;lat;lon;timestamp;temperature;humidity
51466;DHT22;37542;50.164;9.086;2022-09-09T00:03:16;13.70;59.30
51466;DHT22;37542;50.164;9.086;2022-09-09T00:07:15;13.60;60.00
51466;DHT22;37542;50.164;9.086;2022-09-09T00:11:04;13.60;60.50
51466;DHT22;37542;50.164;9.086;2022-09-09T00:23:17;13.60;61.50
51466;DHT22;37542;50.164;9.086;2022-09-09T00:27:11;13.60;61.00
51466;DHT22;37542;50.164;9.086;2022-09-09T00:30:55;13.50;60.60
51466;DHT22;37542;50.164;9.086;2022-09-09T00:34:52;13.50;60.30
51466;DHT22;37542;50.164;9.086;2022-09-09T00:38:47;13.50;61.40
51466;DHT22;37542;50.164;9.086;2022-09-09T00:42:41;13.40;61.60
51466;DHT22;37542;50.164;9.086;2022-09-09T00:50:55;13.40;62.10
51466;DHT22;37542;50.164;9.086;2022-09-09T00:54:53;13.40;60.20
51466;DHT22;37542;50.164;9.086;2022-09-09T00:58:51;13.30;60.10
51466;DHT22;37542;50.164;9.086;2022-09-09T01:07:16;13.30;59.40
51466;DHT22;37542;50.164;9.086;2022-09-09T01:10:59;13.20;60.40
51466;DHT22;37542;50.164;9.086;2022-09-09T01:14:47;13.20;59.60
51466;DHT22;37542;50.164;9.086;2022-09-09T01:18:37;13.10;60.40
51466;DHT22;37542;50.164;9.086;2022-09-09T01:26:41;13.00;61.40
51466;DHT22;37542;50.164;9.086;2022-09-09T01:30:27;12.90;60.80
51466;DHT22;37542;50.164;9.086;2022-09-09T01:34:13;12.90;60.10
51466;DHT22;37542;50.164;9.086;2022-09-09T01:37:55;12.80;61.00
51466;DHT22;37542;50.164;9.086;2022-09-09T01:41:36;12.80;60.40
51466;DHT22;37542;50.164;9.086;2022-09-09T01:45:17;12.70;60.50
51466;DHT22;37542;50.164;9.086;2022-09-09T01:48:59;12.70;60.60
51466;DHT22;37542;50.164;9.086;2022-09-09T01:52:44;12.60;61.30
51466;DHT22;37542;50.164;9.086;2022-09-09T01:56:43;12.60;60.90
51466;DHT22;37542;50.164;9.086;2022-09-09T02:00:26;12.50;61.90
51466;DHT22;37542;50.164;9.086;2022-09-09T02:04:39;12.50;61.70
51466;DHT22;37542;50.164;9.086;2022-09-09T02:12:22;12.30;61.80
51466;DHT22;37542;50.164;9.086;2022-09-09T02:19:49;12.30;60.90
51466;DHT22;37542;50.164;9.086;2022-09-09T02:23:36;12.20;61.30
51466;DHT22;37542;50.164;9.086;2022-09-09T02:27:20;12.20;61.10
51466;DHT22;37542;50.164;9.086;2022-09-09T02:31:03;12.10;61.90
51466;DHT22;37542;50.164;9.086;2022-09-09T02:34:49;12.10;61.40
51466;DHT22;37542;50.164;9.086;2022-09-09T02:38:37;12.00;62.60
51466;DHT22;37542;50.164;9.086;2022-09-09T02:42:22;12.00;62.20
51466;DHT22;37542;50.164;9.086;2022-09-09T02:46:27;12.00;61.70
51466;DHT22;37542;50.164;9.086;2022-09-09T02:51:24;11.90;62.30
51466;DHT22;37542;50.164;9.086;2022-09-09T02:55:16;11.90;63.00
51466;DHT22;37542;50.164;9.086;2022-09-09T02:59:04;11.90;62.70
51466;DHT22;37542;50.164;9.086;2022-09-09T03:02:45;11.90;62.20
51466;DHT22;37542;50.164;9.086;2022-09-09T03:06:26;11.90;62.00
51466;DHT22;37542;50.164;9.086;2022-09-09T03:10:08;11.90;62.30
51466;DHT22;37542;50.164;9.086;2022-09-09T03:13:50;11.90;62.40
51466;DHT22;37542;50.164;9.086;2022-09-09T03:17:32;11.90;62.40
51466;DHT22;37542;50.164;9.086;2022-09-09T03:21:12;11.90;62.60
51466;DHT22;37542;50.164;9.086;2022-09-09T03:24:54;11.80;62.70
51466;DHT22;37542;50.164;9.086;2022-09-09T03:28:35;11.80;62.70
51466;DHT22;37542;50.164;9.086;2022-09-09T03:32:16;11.80;62.90
51466;DHT22;37542;50.164;9.086;2022-09-09T03:35:58;11.80;63.20
51466;DHT22;37542;50.164;9.086;2022-09-09T03:39:38;11.80;63.30
51466;DHT22;37542;50.164;9.086;2022-09-09T03:43:19;11.80;64.10
51466;DHT22;37542;50.164;9.086;2022-09-09T03:47:01;11.90;63.50
51466;DHT22;37542;50.164;9.086;2022-09-09T03:50:52;11.90;63.60
51466;DHT22;37542;50.164;9.086;2022-09-09T03:54:34;11.90;65.10
51466;DHT22;37542;50.164;9.086;2022-09-09T03:58:15;11.90;63.50
51466;DHT22;37542;50.164;9.086;2022-09-09T04:01:58;11.90;63.50
51466;DHT22;37542;50.164;9.086;2022-09-09T04:05:39;11.90;63.50
51466;DHT22;37542;50.164;9.086;2022-09-09T04:09:22;11.90;63.60
51466;DHT22;37542;50.164;9.086;2022-09-09T04:13:04;11.90;63.60
51466;DHT22;37542;50.164;9.086;2022-09-09T04:16:45;11.90;63.90
51466;DHT22;37542;50.164;9.086;2022-09-09T04:20:26;11.90;64.10
51466;DHT22;37542;50.164;9.086;2022-09-09T04:24:08;12.00;64.20
51466;DHT22;37542;50.164;9.086;2022-09-09T04:27:54;12.00;64.40
51466;DHT22;37542;50.164;9.086;2022-09-09T04:31:35;12.10;65.00
51466;DHT22;37542;50.164;9.086;2022-09-09T04:35:16;12.20;65.10
51466;DHT22;37542;50.164;9.086;2022-09-09T04:38:57;12.20;64.30
51466;DHT22;37542;50.164;9.086;2022-09-09T04:42:38;12.30;64.20
51466;DHT22;37542;50.164;9.086;2022-09-09T04:46:20;12.30;64.10
51466;DHT22;37542;50.164;9.086;2022-09-09T04:50:03;12.40;64.30
51466;DHT22;37542;50.164;9.086;2022-09-09T04:53:45;12.40;64.10
51466;DHT22;37542;50.164;9.086;2022-09-09T04:57:27;12.50;64.10
51466;DHT22;37542;50.164;9.086;2022-09-09T05:01:11;12.50;64.10
51466;DHT22;37542;50.164;9.086;2022-09-09T05:04:58;12.60;64.50
51466;DHT22;37542;50.164;9.086;2022-09-09T05:08:40;12.60;64.20
51466;DHT22;37542;50.164;9.086;2022-09-09T05:12:22;12.60;64.20
51466;DHT22;37542;50.164;9.086;2022-09-09T05:16:05;12.70;64.00
51466;DHT22;37542;50.164;9.086;2022-09-09T05:19:46;12.70;64.00
51466;DHT22;37542;50.164;9.086;2022-09-09T05:23:27;12.80;64.10
51466;DHT22;37542;50.164;9.086;2022-09-09T05:27:08;12.80;63.90
51466;DHT22;37542;50.164;9.086;2022-09-09T05:31:00;12.80;64.00
51466;DHT22;37542;50.164;9.086;2022-09-09T05:34:45;12.90;64.40
51466;DHT22;37542;50.164;9.086;2022-09-09T05:38:27;12.90;63.90
51466;DHT22;37542;50.164;9.086;2022-09-09T05:42:09;12.90;64.20
51466;DHT22;37542;50.164;9.086;2022-09-09T05:46:03;13.00;64.20
51466;DHT22;37542;50.164;9.086;2022-09-09T05:49:55;13.10;64.90
51466;DHT22;37542;50.164;9.086;2022-09-09T05:53:36;13.10;64.10
51466;DHT22;37542;50.164;9.086;2022-09-09T05:57:17;13.20;64.20
51466;DHT22;37542;50.164;9.086;2022-09-09T06:01:10;13.30;64.10
51466;DHT22;37542;50.164;9.086;2022-09-09T06:04:53;13.40;64.80
51466;DHT22;37542;50.164;9.086;2022-09-09T06:08:38;13.40;63.90
51466;DHT22;37542;50.164;9.086;2022-09-09T06:12:20;13.50;63.90
51466;DHT22;37542;50.164;9.086;2022-09-09T06:16:01;13.60;63.90
51466;DHT22;37542;50.164;9.086;2022-09-09T06:19:42;13.60;63.80
51466;DHT22;37542;50.164;9.086;2022-09-09T06:23:24;13.70;63.80
51466;DHT22;37542;50.164;9.086;2022-09-09T06:27:06;13.80;63.70
51466;DHT22;37542;50.164;9.086;2022-09-09T06:30:46;13.90;63.60
51466;DHT22;37542;50.164;9.086;2022-09-09T06:34:27;13.90;63.30
51466;DHT22;37542;50.164;9.086;2022-09-09T06:38:08;14.00;63.30
51466;DHT22;37542;50.164;9.086;2022-09-09T06:41:49;14.00;63.10
51466;DHT22;37542;50.164;9.086;2022-09-09T06:45:33;14.10;63.00
51466;DHT22;37542;50.164;9.086;2022-09-09T06:49:16;14.20;63.00
51466;DHT22;37542;50.164;9.086;2022-09-09T06:52:57;14.20;63.10
51466;DHT22;37542;50.164;9.086;2022-09-09T06:56:40;14.30;63.10
51466;DHT22;37542;50.164;9.086;2022-09-09T07:00:23;14.30;63.00
51466;DHT22;37542;50.164;9.086;2022-09-09T07:04:05;14.40;62.90
51466;DHT22;37542;50.164;9.086;2022-09-09T07:07:48;14.50;62.90
51466;DHT22;37542;50.164;9.086;2022-09-09T07:11:31;14.60;63.00
51466;DHT22;37542;50.164;9.086;2022-09-09T07:15:22;14.60;62.90
51466;DHT22;37542;50.164;9.086;2022-09-09T07:19:04;14.80;62.90
51466;DHT22;37542;50.164;9.086;2022-09-09T07:22:45;14.90;62.80
51466;DHT22;37542;50.164;9.086;2022-09-09T07:26:28;15.00;62.80
51466;DHT22;37542;50.164;9.086;2022-09-09T07:30:11;15.20;62.60
51466;DHT22;37542;50.164;9.086;2022-09-09T07:33:51;15.30;62.60
51466;DHT22;37542;50.164;9.086;2022-09-09T07:37:32;15.40;62.40
51466;DHT22;37542;50.164;9.086;2022-09-09T07:45:24;15.70;62.10
51466;DHT22;37542;50.164;9.086;2022-09-09T07:49:05;15.90;61.90
51466;DHT22;37542;50.164;9.086;2022-09-09T07:52:47;16.00;61.80
51466;DHT22;37542;50.164;9.086;2022-09-09T07:56:29;16.10;61.40
51466;DHT22;37542;50.164;9.086;2022-09-09T08:00:14;16.20;60.90
51466;DHT22;37542;50.164;9.086;2022-09-09T08:04:00;16.30;60.70
51466;DHT22;37542;50.164;9.086;2022-09-09T08:07:42;16.40;60.00
51466;DHT22;37542;50.164;9.086;2022-09-09T08:11:26;16.40;60.10
51466;DHT22;37542;50.164;9.086;2022-09-09T08:15:08;16.50;59.90
51466;DHT22;37542;50.164;9.086;2022-09-09T08:18:53;16.50;59.90
51466;DHT22;37542;50.164;9.086;2022-09-09T08:22:37;16.60;59.70
51466;DHT22;37542;50.164;9.086;2022-09-09T08:26:30;16.70;59.70
51466;DHT22;37542;50.164;9.086;2022-09-09T08:30:16;16.70;59.10
51466;DHT22;37542;50.164;9.086;2022-09-09T08:33:58;16.80;59.70
51466;DHT22;37542;50.164;9.086;2022-09-09T08:37:40;16.80;59.50
51466;DHT22;37542;50.164;9.086;2022-09-09T08:53:49;17.20;59.60
51466;DHT22;37542;50.164;9.086;2022-09-09T08:57:32;17.30;59.20
51466;DHT22;37542;50.164;9.086;2022-09-09T09:05:33;17.40;59.10
51466;DHT22;37542;50.164;9.086;2022-09-09T09:13:57;17.70;58.20
51466;DHT22;37542;50.164;9.086;2022-09-09T09:17:43;17.80;58.10
51466;DHT22;37542;50.164;9.086;2022-09-09T09:21:42;18.00;58.50
51466;DHT22;37542;50.164;9.086;2022-09-09T09:25:34;18.10;57.10
51466;DHT22;37542;50.164;9.086;2022-09-09T09:29:19;18.20;56.90
51466;DHT22;37542;50.164;9.086;2022-09-09T09:33:22;18.30;57.30
51466;DHT22;37542;50.164;9.086;2022-09-09T09:37:28;18.40;56.10
51466;DHT22;37542;50.164;9.086;2022-09-09T09:41:15;18.50;56.00
51466;DHT22;37542;50.164;9.086;2022-09-09T09:44:55;18.70;55.60
51466;DHT22;37542;50.164;9.086;2022-09-09T09:48:36;18.70;55.90
51466;DHT22;37542;50.164;9.086;2022-09-09T09:52:23;18.80;55.90
51466;DHT22;37542;50.164;9.086;2022-09-09T09:56:08;18.90;55.30
51466;DHT22;37542;50.164;9.086;2022-09-09T10:00:02;19.00;55.70
51466;DHT22;37542;50.164;9.086;2022-09-09T10:04:13;19.10;54.30
51466;DHT22;37542;50.164;9.086;2022-09-09T10:08:14;19.10;55.80
51466;DHT22;37542;50.164;9.086;2022-09-09T10:12:06;19.20;54.20
51466;DHT22;37542;50.164;9.086;2022-09-09T10:21:02;19.30;53.20
51466;DHT22;37542;50.164;9.086;2022-09-09T10:33:22;19.50;53.50
51466;DHT22;37542;50.164;9.086;2022-09-09T10:54:05;20.10;53.10
51466;DHT22;37542;50.164;9.086;2022-09-09T10:57:52;20.20;52.90
51466;DHT22;37542;50.164;9.086;2022-09-09T11:01:51;20.30;53.10
51466;DHT22;37542;50.164;9.086;2022-09-09T11:05:43;20.50;51.80
51466;DHT22;37542;50.164;9.086;2022-09-09T11:09:32;20.60;52.40
51466;DHT22;37542;50.164;9.086;2022-09-09T11:17:46;20.90;52.00
51466;DHT22;37542;50.164;9.086;2022-09-09T11:21:40;20.90;52.70
51466;DHT22;37542;50.164;9.086;2022-09-09T11:25:36;21.00;51.00
51466;DHT22;37542;50.164;9.086;2022-09-09T11:29:29;21.00;50.00
51466;DHT22;37542;50.164;9.086;2022-09-09T11:41:14;21.00;51.60
51466;DHT22;37542;50.164;9.086;2022-09-09T11:44:56;21.30;52.10
51466;DHT22;37542;50.164;9.086;2022-09-09T11:52:40;21.40;51.00
51466;DHT22;37542;50.164;9.086;2022-09-09T11:56:42;21.70;49.20
51466;DHT22;37542;50.164;9.086;2022-09-09T12:00:30;21.90;50.50
51466;DHT22;37542;50.164;9.086;2022-09-09T12:08:05;22.30;48.70
51466;DHT22;37542;50.164;9.086;2022-09-09T12:11:46;22.30;48.50
51466;DHT22;37542;50.164;9.086;2022-09-09T12:15:28;22.40;49.00
51466;DHT22;37542;50.164;9.086;2022-09-09T12:31:14;22.60;46.50
51466;DHT22;37542;50.164;9.086;2022-09-09T12:35:04;22.70;45.60
51466;DHT22;37542;50.164;9.086;2022-09-09T12:38:52;22.80;46.30
51466;DHT22;37542;50.164;9.086;2022-09-09T12:42:39;22.80;46.80
51466;DHT22;37542;50.164;9.086;2022-09-09T12:46:34;22.70;45.00
51466;DHT22;37542;50.164;9.086;2022-09-09T12:50:26;22.60;44.80
51466;DHT22;37542;50.164;9.086;2022-09-09T12:54:13;22.40;46.00
51466;DHT22;37542;50.164;9.086;2022-09-09T12:57:56;22.20;46.80
51466;DHT22;37542;50.164;9.086;2022-09-09T13:01:39;22.10;47.80
51466;DHT22;37542;50.164;9.086;2022-09-09T13:05:27;21.90;48.40
51466;DHT22;37542;50.164;9.086;2022-09-09T13:09:08;21.80;49.10
51466;DHT22;37542;50.164;9.086;2022-09-09T13:12:50;21.70;48.70
51466;DHT22;37542;50.164;9.086;2022-09-09T13:16:34;21.60;48.90
51466;DHT22;37542;50.164;9.086;2022-09-09T13:20:19;21.50;48.60
51466;DHT22;37542;50.164;9.086;2022-09-09T13:24:01;21.40;48.70
51466;DHT22;37542;50.164;9.086;2022-09-09T13:28:01;21.20;48.70
51466;DHT22;37542;50.164;9.086;2022-09-09T13:31:44;21.00;48.70
51466;DHT22;37542;50.164;9.086;2022-09-09T13:35:26;20.90;49.00
51466;DHT22;37542;50.164;9.086;2022-09-09T13:39:16;20.70;50.10
51466;DHT22;37542;50.164;9.086;2022-09-09T13:42:58;20.50;51.50
51466;DHT22;37542;50.164;9.086;2022-09-09T13:46:40;20.30;50.70
51466;DHT22;37542;50.164;9.086;2022-09-09T13:54:05;19.80;52.30
51466;DHT22;37542;50.164;9.086;2022-09-09T13:57:57;19.50;52.40
51466;DHT22;37542;50.164;9.086;2022-09-09T14:01:41;19.30;54.30
51466;DHT22;37542;50.164;9.086;2022-09-09T14:05:22;19.20;54.00
51466;DHT22;37542;50.164;9.086;2022-09-09T14:09:03;19.10;53.70
51466;DHT22;37542;50.164;9.086;2022-09-09T14:12:45;19.10;53.70
51466;DHT22;37542;50.164;9.086;2022-09-09T14:16:27;19.10;54.00
51466;DHT22;37542;50.164;9.086;2022-09-09T14:20:09;19.10;53.40
51466;DHT22;37542;50.164;9.086;2022-09-09T14:23:52;19.20;53.70
51466;DHT22;37542;50.164;9.086;2022-09-09T14:27:33;19.30;52.70
51466;DHT22;37542;50.164;9.086;2022-09-09T14:31:14;19.30;53.40
51466;DHT22;37542;50.164;9.086;2022-09-09T14:34:55;19.40;52.90
51466;DHT22;37542;50.164;9.086;2022-09-09T14:38:37;19.50;51.90
51466;DHT22;37542;50.164;9.086;2022-09-09T14:42:22;19.50;51.70
51466;DHT22;37542;50.164;9.086;2022-09-09T14:46:11;19.60;51.20
51466;DHT22;37542;50.164;9.086;2022-09-09T14:49:53;19.70;50.80
51466;DHT22;37542;50.164;9.086;2022-09-09T14:53:34;19.80;51.10
51466;DHT22;37542;50.164;9.086;2022-09-09T14:57:15;19.80;50.70
51466;DHT22;37542;50.164;9.086;2022-09-09T15:01:05;19.80;50.60
51466;DHT22;37542;50.164;9.086;2022-09-09T15:04:46;19.80;49.30
51466;DHT22;37542;50.164;9.086;2022-09-09T15:08:27;19.80;50.10
51466;DHT22;37542;50.164;9.086;2022-09-09T15:12:08;19.70;50.20
51466;DHT22;37542;50.164;9.086;2022-09-09T15:15:49;19.70;49.90
51466;DHT22;37542;50.164;9.086;2022-09-09T15:19:30;19.70;49.70
51466;DHT22;37542;50.164;9.086;2022-09-09T15:23:13;19.70;49.50
51466;DHT22;37542;50.164;9.086;2022-09-09T15:26:54;19.60;49.30
51466;DHT22;37542;50.164;9.086;2022-09-09T15:30:35;19.50;49.30
51466;DHT22;37542;50.164;9.086;2022-09-09T15:34:16;19.40;49.60
51466;DHT22;37542;50.164;9.086;2022-09-09T15:37:56;19.40;49.80
51466;DHT22;37542;50.164;9.086;2022-09-09T15:41:37;19.40;49.70
51466;DHT22;37542;50.164;9.086;2022-09-09T15:45:19;19.30;49.70
51466;DHT22;37542;50.164;9.086;2022-09-09T15:52:53;19.20;48.90
51466;DHT22;37542;50.164;9.086;2022-09-09T15:56:35;19.20;49.30
51466;DHT22;37542;50.164;9.086;2022-09-09T16:00:16;19.10;49.40
51466;DHT22;37542;50.164;9.086;2022-09-09T16:03:57;19.10;49.30
51466;DHT22;37542;50.164;9.086;2022-09-09T16:07:40;19.10;49.50
51466;DHT22;37542;50.164;9.086;2022-09-09T16:11:24;19.10;49.40
51466;DHT22;37542;50.164;9.086;2022-09-09T16:15:07;19.10;49.50
51466;DHT22;37542;50.164;9.086;2022-09-09T16:18:50;19.10;49.30
51466;DHT22;37542;50.164;9.086;2022-09-09T16:22:35;19.10;49.30
51466;DHT22;37542;50.164;9.086;2022-09-09T16:26:16;19.10;49.30
51466;DHT22;37542;50.164;9.086;2022-09-09T16:29:58;19.20;49.20
51466;DHT22;37542;50.164;9.086;2022-09-09T16:33:39;19.20;49.20
51466;DHT22;37542;50.164;9.086;2022-09-09T16:37:21;19.10;49.10
51466;DHT22;37542;50.164;9.086;2022-09-09T16:41:03;19.10;48.90
51466;DHT22;37542;50.164;9.086;2022-09-09T16:44:46;19.00;48.80
51466;DHT22;37542;50.164;9.086;2022-09-09T16:48:31;18.90;48.90
51466;DHT22;37542;50.164;9.086;2022-09-09T16:52:13;18.80;49.40
51466;DHT22;37542;50.164;9.086;2022-09-09T16:55:54;18.70;49.40
51466;DHT22;37542;50.164;9.086;2022-09-09T16:59:35;18.70;49.60
51466;DHT22;37542;50.164;9.086;2022-09-09T17:03:16;18.50;49.80
51466;DHT22;37542;50.164;9.086;2022-09-09T17:06:57;18.50;50.00
51466;DHT22;37542;50.164;9.086;2022-09-09T17:10:41;18.40;50.10
51466;DHT22;37542;50.164;9.086;2022-09-09T17:14:22;18.30;50.20
51466;DHT22;37542;50.164;9.086;2022-09-09T17:18:04;18.20;50.30
51466;DHT22;37542;50.164;9.086;2022-09-09T17:21:45;18.10;50.60
51466;DHT22;37542;50.164;9.086;2022-09-09T17:25:27;18.10;50.70
51466;DHT22;37542;50.164;9.086;2022-09-09T17:29:08;18.00;50.70
51466;DHT22;37542;50.164;9.086;2022-09-09T17:32:51;17.90;51.10
51466;DHT22;37542;50.164;9.086;2022-09-09T17:36:33;17.80;51.10
51466;DHT22;37542;50.164;9.086;2022-09-09T17:40:17;17.70;51.30
51466;DHT22;37542;50.164;9.086;2022-09-09T17:43:57;17.70;51.50
51466;DHT22;37542;50.164;9.086;2022-09-09T17:47:38;17.60;51.50
51466;DHT22;37542;50.164;9.086;2022-09-09T17:51:23;17.50;51.60
51466;DHT22;37542;50.164;9.086;2022-09-09T17:55:08;17.50;51.90
51466;DHT22;37542;50.164;9.086;2022-09-09T17:58:50;17.40;51.90
51466;DHT22;37542;50.164;9.086;2022-09-09T18:02:32;17.30;51.90
51466;DHT22;37542;50.164;9.086;2022-09-09T18:06:19;17.30;52.00
51466;DHT22;37542;50.164;9.086;2022-09-09T18:10:03;17.20;52.00
51466;DHT22;37542;50.164;9.086;2022-09-09T18:13:53;17.10;52.00
51466;DHT22;37542;50.164;9.086;2022-09-09T18:17:35;17.10;52.50
51466;DHT22;37542;50.164;9.086;2022-09-09T18:21:17;17.00;52.80
51466;DHT22;37542;50.164;9.086;2022-09-09T18:24:58;17.00;52.30
51466;DHT22;37542;50.164;9.086;2022-09-09T18:28:41;16.90;52.30
51466;DHT22;37542;50.164;9.086;2022-09-09T18:32:23;16.80;52.60
51466;DHT22;37542;50.164;9.086;2022-09-09T18:36:08;16.70;52.60
51466;DHT22;37542;50.164;9.086;2022-09-09T18:39:52;16.70;53.10
51466;DHT22;37542;50.164;9.086;2022-09-09T18:43:33;16.60;52.90
51466;DHT22;37542;50.164;9.086;2022-09-09T18:47:13;16.50;52.90
51466;DHT22;37542;50.164;9.086;2022-09-09T18:50:55;16.50;53.10
51466;DHT22;37542;50.164;9.086;2022-09-09T18:54:36;16.40;53.20
51466;DHT22;37542;50.164;9.086;2022-09-09T18:58:17;16.40;53.20
51466;DHT22;37542;50.164;9.086;2022-09-09T19:01:58;16.30;53.40
51466;DHT22;37542;50.164;9.086;2022-09-09T19:05:39;16.10;53.40
51466;DHT22;37542;50.164;9.086;2022-09-09T19:09:19;16.20;53.50
51466;DHT22;37542;50.164;9.086;2022-09-09T19:13:00;16.20;53.60
51466;DHT22;37542;50.164;9.086;2022-09-09T19:16:41;16.20;53.70
51466;DHT22;37542;50.164;9.086;2022-09-09T19:20:24;16.10;53.90
51466;DHT22;37542;50.164;9.086;2022-09-09T19:24:08;16.10;53.90
51466;DHT22;37542;50.164;9.086;2022-09-09T19:27:51;16.10;54.20
51466;DHT22;37542;50.164;9.086;2022-09-09T19:31:32;16.10;54.00
51466;DHT22;37542;50.164;9.086;2022-09-09T19:35:13;16.00;53.90
51466;DHT22;37542;50.164;9.086;2022-09-09T19:38:54;16.00;54.20
51466;DHT22;37542;50.164;9.086;2022-09-09T19:42:35;16.00;54.30
51466;DHT22;37542;50.164;9.086;2022-09-09T19:46:16;15.90;54.30
51466;DHT22;37542;50.164;9.086;2022-09-09T19:49:57;15.90;54.90
51466;DHT22;37542;50.164;9.086;2022-09-09T19:53:40;15.80;54.50
51466;DHT22;37542;50.164;9.086;2022-09-09T19:57:23;15.80;54.80
51466;DHT22;37542;50.164;9.086;2022-09-09T20:01:13;15.70;54.80
51466;DHT22;37542;50.164;9.086;2022-09-09T20:05:01;15.70;55.40
51466;DHT22;37542;50.164;9.086;2022-09-09T20:08:44;15.60;55.00
51466;DHT22;37542;50.164;9.086;2022-09-09T20:12:26;15.60;55.10
51466;DHT22;37542;50.164;9.086;2022-09-09T20:16:10;15.50;55.20
51466;DHT22;37542;50.164;9.086;2022-09-09T20:19:52;15.50;55.70
51466;DHT22;37542;50.164;9.086;2022-09-09T20:23:33;15.40;55.40
51466;DHT22;37542;50.164;9.086;2022-09-09T20:27:14;15.40;55.70
51466;DHT22;37542;50.164;9.086;2022-09-09T20:30:55;15.30;55.80
51466;DHT22;37542;50.164;9.086;2022-09-09T20:34:43;15.30;55.90
51466;DHT22;37542;50.164;9.086;2022-09-09T20:38:25;15.20;55.90
51466;DHT22;37542;50.164;9.086;2022-09-09T20:42:06;15.10;56.10
51466;DHT22;37542;50.164;9.086;2022-09-09T20:45:47;15.10;56.10
51466;DHT22;37542;50.164;9.086;2022-09-09T20:49:29;15.00;56.20
51466;DHT22;37542;50.164;9.086;2022-09-09T20:53:10;14.90;56.30
51466;DHT22;37542;50.164;9.086;2022-09-09T20:56:52;14.90;56.50
51466;DHT22;37542;50.164;9.086;2022-09-09T21:00:34;14.80;56.90
51466;DHT22;37542;50.164;9.086;2022-09-09T21:04:17;14.80;56.80
51466;DHT22;37542;50.164;9.086;2022-09-09T21:07:59;14.70;57.20
51466;DHT22;37542;50.164;9.086;2022-09-09T21:11:40;14.70;57.10
51466;DHT22;37542;50.164;9.086;2022-09-09T21:15:21;14.70;57.20
51466;DHT22;37542;50.164;9.086;2022-09-09T21:19:03;14.60;57.20
51466;DHT22;37542;50.164;9.086;2022-09-09T21:22:44;14.60;57.60
51466;DHT22;37542;50.164;9.086;2022-09-09T21:26:25;14.50;57.80
51466;DHT22;37542;50.164;9.086;2022-09-09T21:30:06;14.50;57.90
51466;DHT22;37542;50.164;9.086;2022-09-09T21:33:48;14.40;58.00
51466;DHT22;37542;50.164;9.086;2022-09-09T21:37:28;14.40;58.00
51466;DHT22;37542;50.164;9.086;2022-09-09T21:41:12;14.30;57.90
51466;DHT22;37542;50.164;9.086;2022-09-09T21:44:54;14.30;58.60
51466;DHT22;37542;50.164;9.086;2022-09-09T21:48:36;14.30;58.30
51466;DHT22;37542;50.164;9.086;2022-09-09T21:52:17;14.20;58.20
51466;DHT22;37542;50.164;9.086;2022-09-09T21:56:13;14.20;58.80
51466;DHT22;37542;50.164;9.086;2022-09-09T21:59:56;14.20;59.20
51466;DHT22;37542;50.164;9.086;2022-09-09T22:03:37;14.10;58.40
51466;DHT22;37542;50.164;9.086;2022-09-09T22:07:19;14.10;58.40
51466;DHT22;37542;50.164;9.086;2022-09-09T22:11:08;14.10;58.70
51466;DHT22;37542;50.164;9.086;2022-09-09T22:14:50;14.00;59.50
51466;DHT22;37542;50.164;9.086;2022-09-09T22:18:33;14.00;58.60
51466;DHT22;37542;50.164;9.086;2022-09-09T22:22:14;14.00;58.70
51466;DHT22;37542;50.164;9.086;2022-09-09T22:25:54;14.00;58.70
51466;DHT22;37542;50.164;9.086;2022-09-09T22:29:37;13.90;58.80
51466;DHT22;37542;50.164;9.086;2022-09-09T22:33:18;13.90;58.80
51466;DHT22;37542;50.164;9.086;2022-09-09T22:37:01;13.90;58.90
51466;DHT22;37542;50.164;9.086;2022-09-09T22:40:43;13.90;59.10
51466;DHT22;37542;50.164;9.086;2022-09-09T22:44:25;13.90;59.00
51466;DHT22;37542;50.164;9.086;2022-09-09T22:48:06;13.90;59.10
51466;DHT22;37542;50.164;9.086;2022-09-09T22:51:47;13.90;59.10
51466;DHT22;37542;50.164;9.086;2022-09-09T22:55:28;13.90;59.00
51466;DHT22;37542;50.164;9.086;2022-09-09T22:59:10;13.80;58.80
51466;DHT22;37542;50.164;9.086;2022-09-09T23:02:50;13.80;58.80
51466;DHT22;37542;50.164;9.086;2022-09-09T23:06:32;13.80;59.10
51466;DHT22;37542;50.164;9.086;2022-09-09T23:10:13;13.70;59.00
51466;DHT22;37542;50.164;9.086;2022-09-09T23:13:56;13.70;59.30
51466;DHT22;37542;50.164;9.086;2022-09-09T23:17:39;13.70;59.20
51466;DHT22;37542;50.164;9.086;2022-09-09T23:21:21;13.70;59.30
51466;DHT22;37542;50.164;9.086;2022-09-09T23:25:05;13.60;59.40
51466;DHT22;37542;50.164;9.086;2022-09-09T23:28:47;13.60;59.30
51466;DHT22;37542;50.164;9.086;2022-09-09T23:32:30;13.50;59.60
51466;DHT22;37542;50.164;9.086;2022-09-09T23:36:17;13.50;59.50
51466;DHT22;37542;50.164;9.086;2022-09-09T23:39:59;13.50;59.80
51466;DHT22;37542;50.164;9.086;2022-09-09T23:43:40;13.40;59.90
51466;DHT22;37542;50.164;9.086;2022-09-09T23:47:23;13.40;59.80
51466;DHT22;37542;50.164;9.086;2022-09-09T23:51:06;13.40;59.80
51466;DHT22;37542;50.164;9.086;2022-09-09T23:54:48;13.30;60.10
51466;DHT22;37542;50.164;9.086;2022-09-09T23:58:32;13.30;60.00
